<?xml version="1.0" encoding="UTF-8" standalone="no" ?>
<gpx xmlns="http://www.topografix.com/GPX/1/1" xmlns:xsi="http://www.w3.org/2001/XMLSchema-instance" xsi:schemaLocation="http://www.topografix.com/GPX/1/1 http://www.topografix.com/GPX/1/1/gpx.xsd" version="1.1" creator="VisuGPX - https://www.visugpx.com">
  <metadata>
    <name>Mornant circuit bleu 158</name>
    <desc><![CDATA[

]]></desc>
  </metadata>
  <trk>
    <name><![CDATA[Mornant circuit bleu 158]]></name>
    <trkseg>
      <trkpt lat="45.62099" lon="4.67375">
        <ele>369.78515625</ele>
        <time>2018-04-04T14:36:18Z</time>
      </trkpt>
      <trkpt lat="45.6196" lon="4.67169">
        <ele>365.0546875</ele>
        <time>2018-04-04T14:36:33Z</time>
      </trkpt>
      <trkpt lat="45.61933" lon="4.67027">
        <ele>363.421875</ele>
        <time>2018-04-04T14:36:35Z</time>
      </trkpt>
      <trkpt lat="45.62014" lon="4.66785">
        <ele>353.9296875</ele>
        <time>2018-04-04T14:36:37Z</time>
      </trkpt>
      <trkpt lat="45.61897" lon="4.66777">
        <ele>340.12890625</ele>
        <time>2018-04-04T14:36:43Z</time>
      </trkpt>
      <trkpt lat="45.61825" lon="4.66833">
        <ele>338.3203125</ele>
        <time>2018-04-04T14:36:44Z</time>
      </trkpt>
      <trkpt lat="45.61737" lon="4.66865">
        <ele>339.28125</ele>
        <time>2018-04-04T14:36:48Z</time>
      </trkpt>
      <trkpt lat="45.61715" lon="4.66872">
        <ele>339.44140625</ele>
        <time>2018-04-04T14:36:51Z</time>
      </trkpt>
      <trkpt lat="45.61617" lon="4.67009">
        <ele>333.125</ele>
        <time>2018-04-04T14:36:52Z</time>
      </trkpt>
      <trkpt lat="45.61573" lon="4.6709">
        <ele>333.3046875</ele>
        <time>2018-04-04T14:37:02Z</time>
      </trkpt>
      <trkpt lat="45.61564" lon="4.67039">
        <ele>331.359375</ele>
        <time>2018-04-04T14:37:04Z</time>
      </trkpt>
      <trkpt lat="45.61533" lon="4.67045">
        <ele>330.69140625</ele>
        <time>2018-04-04T14:37:04Z</time>
      </trkpt>
      <trkpt lat="45.61481" lon="4.67073">
        <ele>330.1015625</ele>
        <time>2018-04-04T14:37:06Z</time>
      </trkpt>
      <trkpt lat="45.61446" lon="4.67126">
        <ele>328.6640625</ele>
        <time>2018-04-04T14:37:07Z</time>
      </trkpt>
      <trkpt lat="45.61428" lon="4.67245">
        <ele>331.43359375</ele>
        <time>2018-04-04T14:37:08Z</time>
      </trkpt>
      <trkpt lat="45.61335" lon="4.67316">
        <ele>330.28125</ele>
        <time>2018-04-04T14:37:11Z</time>
      </trkpt>
      <trkpt lat="45.61258" lon="4.67395">
        <ele>327.73828125</ele>
        <time>2018-04-04T14:37:12Z</time>
      </trkpt>
      <trkpt lat="45.61229" lon="4.67379">
        <ele>327.04296875</ele>
        <time>2018-04-04T14:37:13Z</time>
      </trkpt>
      <trkpt lat="45.61154" lon="4.67391">
        <ele>334.546875</ele>
        <time>2018-04-04T14:37:14Z</time>
      </trkpt>
      <trkpt lat="45.61048" lon="4.67447">
        <ele>339.625</ele>
        <time>2018-04-04T14:37:18Z</time>
      </trkpt>
      <trkpt lat="45.60978" lon="4.67463">
        <ele>342.0703125</ele>
        <time>2018-04-04T14:37:25Z</time>
      </trkpt>
      <trkpt lat="45.60911" lon="4.67508">
        <ele>344.3828125</ele>
        <time>2018-04-04T14:37:26Z</time>
      </trkpt>
      <trkpt lat="45.60817" lon="4.67487">
        <ele>350.296875</ele>
        <time>2018-04-04T14:37:27Z</time>
      </trkpt>
      <trkpt lat="45.60729" lon="4.67584">
        <ele>350.3515625</ele>
        <time>2018-04-04T14:37:29Z</time>
      </trkpt>
      <trkpt lat="45.60634" lon="4.67629">
        <ele>348.5234375</ele>
        <time>2018-04-04T14:37:30Z</time>
      </trkpt>
      <trkpt lat="45.60574" lon="4.67782">
        <ele>339.3203125</ele>
        <time>2018-04-04T14:37:35Z</time>
      </trkpt>
      <trkpt lat="45.60501" lon="4.67778">
        <ele>334.44140625</ele>
        <time>2018-04-04T14:37:36Z</time>
      </trkpt>
      <trkpt lat="45.60438" lon="4.67743">
        <ele>333.48046875</ele>
        <time>2018-04-04T14:37:38Z</time>
      </trkpt>
      <trkpt lat="45.60376" lon="4.67749">
        <ele>333.0390625</ele>
        <time>2018-04-04T14:37:39Z</time>
      </trkpt>
      <trkpt lat="45.60323" lon="4.67729">
        <ele>333.77734375</ele>
        <time>2018-04-04T14:37:44Z</time>
      </trkpt>
      <trkpt lat="45.60222" lon="4.67743">
        <ele>330.01953125</ele>
        <time>2018-04-04T14:37:45Z</time>
      </trkpt>
      <trkpt lat="45.60104" lon="4.67822">
        <ele>313.078125</ele>
        <time>2018-04-04T14:37:46Z</time>
      </trkpt>
      <trkpt lat="45.60031" lon="4.67786">
        <ele>311.08203125</ele>
        <time>2018-04-04T14:37:50Z</time>
      </trkpt>
      <trkpt lat="45.59969" lon="4.67716">
        <ele>312.515625</ele>
        <time>2018-04-04T14:37:52Z</time>
      </trkpt>
      <trkpt lat="45.5992" lon="4.6763">
        <ele>318.359375</ele>
        <time>2018-04-04T14:37:53Z</time>
      </trkpt>
      <trkpt lat="45.5988" lon="4.67638">
        <ele>322.88671875</ele>
        <time>2018-04-04T14:37:54Z</time>
      </trkpt>
      <trkpt lat="45.59737" lon="4.67481">
        <ele>335.74609375</ele>
        <time>2018-04-04T14:37:57Z</time>
      </trkpt>
      <trkpt lat="45.59669" lon="4.67487">
        <ele>340.53515625</ele>
        <time>2018-04-04T14:37:58Z</time>
      </trkpt>
      <trkpt lat="45.59652" lon="4.67359">
        <ele>338.46484375</ele>
        <time>2018-04-04T14:38:05Z</time>
      </trkpt>
      <trkpt lat="45.59657" lon="4.67208">
        <ele>340.5625</ele>
        <time>2018-04-04T14:38:06Z</time>
      </trkpt>
      <trkpt lat="45.59575" lon="4.67038">
        <ele>342.765625</ele>
        <time>2018-04-04T14:38:07Z</time>
      </trkpt>
      <trkpt lat="45.59497" lon="4.66681">
        <ele>348.16015625</ele>
        <time>2018-04-04T14:38:08Z</time>
      </trkpt>
      <trkpt lat="45.595" lon="4.66533">
        <ele>347.9921875</ele>
        <time>2018-04-04T14:38:10Z</time>
      </trkpt>
      <trkpt lat="45.5947" lon="4.66321">
        <ele>350.7109375</ele>
        <time>2018-04-04T14:38:11Z</time>
      </trkpt>
      <trkpt lat="45.59436" lon="4.66182">
        <ele>355.078125</ele>
        <time>2018-04-04T14:38:37Z</time>
      </trkpt>
      <trkpt lat="45.59662" lon="4.66121">
        <ele>346.87890625</ele>
        <time>2018-04-04T14:38:39Z</time>
      </trkpt>
      <trkpt lat="45.59701" lon="4.66005">
        <ele>348.49609375</ele>
        <time>2018-04-04T14:38:40Z</time>
      </trkpt>
      <trkpt lat="45.59676" lon="4.65939">
        <ele>350.47265625</ele>
        <time>2018-04-04T14:38:41Z</time>
      </trkpt>
      <trkpt lat="45.59741" lon="4.65774">
        <ele>349.83203125</ele>
        <time>2018-04-04T14:38:42Z</time>
      </trkpt>
      <trkpt lat="45.59703" lon="4.65584">
        <ele>353.3125</ele>
        <time>2018-04-04T14:38:43Z</time>
      </trkpt>
      <trkpt lat="45.5974" lon="4.6546">
        <ele>350.4609375</ele>
        <time>2018-04-04T14:38:44Z</time>
      </trkpt>
      <trkpt lat="45.59756" lon="4.65239">
        <ele>354.015625</ele>
        <time>2018-04-04T14:38:49Z</time>
      </trkpt>
      <trkpt lat="45.5954" lon="4.65083">
        <ele>369.36328125</ele>
        <time>2018-04-04T14:38:56Z</time>
      </trkpt>
      <trkpt lat="45.59437" lon="4.64841">
        <ele>384.57421875</ele>
        <time>2018-04-04T14:38:58Z</time>
      </trkpt>
      <trkpt lat="45.59297" lon="4.64723">
        <ele>391.9609375</ele>
        <time>2018-04-04T14:39:05Z</time>
      </trkpt>
      <trkpt lat="45.59107" lon="4.64799">
        <ele>392.65625</ele>
        <time>2018-04-04T14:39:11Z</time>
      </trkpt>
      <trkpt lat="45.59015" lon="4.652">
        <ele>388.51171875</ele>
        <time>2018-04-04T14:39:12Z</time>
      </trkpt>
      <trkpt lat="45.58983" lon="4.65451">
        <ele>383.99609375</ele>
        <time>2018-04-04T14:39:13Z</time>
      </trkpt>
      <trkpt lat="45.58773" lon="4.65438">
        <ele>375.6484375</ele>
        <time>2018-04-04T14:39:15Z</time>
      </trkpt>
      <trkpt lat="45.58554" lon="4.65569">
        <ele>358.5546875</ele>
        <time>2018-04-04T14:39:24Z</time>
      </trkpt>
      <trkpt lat="45.58536" lon="4.65671">
        <ele>355.71484375</ele>
        <time>2018-04-04T14:39:26Z</time>
      </trkpt>
      <trkpt lat="45.58431" lon="4.65599">
        <ele>353.75390625</ele>
        <time>2018-04-04T14:39:27Z</time>
      </trkpt>
      <trkpt lat="45.58346" lon="4.65645">
        <ele>349.23828125</ele>
        <time>2018-04-04T14:39:29Z</time>
      </trkpt>
      <trkpt lat="45.58268" lon="4.65818">
        <ele>342.015625</ele>
        <time>2018-04-04T14:39:30Z</time>
      </trkpt>
      <trkpt lat="45.58187" lon="4.65977">
        <ele>339.61328125</ele>
        <time>2018-04-04T14:39:35Z</time>
      </trkpt>
      <trkpt lat="45.58104" lon="4.66081">
        <ele>340.29296875</ele>
        <time>2018-04-04T14:39:37Z</time>
      </trkpt>
      <trkpt lat="45.58257" lon="4.66065">
        <ele>334.33203125</ele>
        <time>2018-04-04T23:32:58Z</time>
      </trkpt>
      <trkpt lat="45.58281" lon="4.66236">
        <ele>332.203125</ele>
        <time>2018-04-04T23:33:04Z</time>
      </trkpt>
      <trkpt lat="45.58324" lon="4.66402">
        <ele>324.171875</ele>
        <time>2018-04-04T23:33:11Z</time>
      </trkpt>
      <trkpt lat="45.58295" lon="4.66615">
        <ele>305.359375</ele>
        <time>2018-04-04T23:33:14Z</time>
      </trkpt>
      <trkpt lat="45.58233" lon="4.66675">
        <ele>317.40234375</ele>
        <time>2018-04-04T23:33:18Z</time>
      </trkpt>
      <trkpt lat="45.58136" lon="4.66844">
        <ele>305.39453125</ele>
        <time>2018-04-04T23:33:22Z</time>
      </trkpt>
      <trkpt lat="45.58076" lon="4.66984">
        <ele>310.51171875</ele>
        <time>2018-04-04T23:33:30Z</time>
      </trkpt>
      <trkpt lat="45.57864" lon="4.67046">
        <ele>320.015625</ele>
        <time>2018-04-04T23:33:33Z</time>
      </trkpt>
      <trkpt lat="45.57733" lon="4.67079">
        <ele>323.1015625</ele>
        <time>2018-04-04T23:33:37Z</time>
      </trkpt>
      <trkpt lat="45.57528" lon="4.67235">
        <ele>325.66015625</ele>
        <time>2018-04-04T14:40:10Z</time>
      </trkpt>
      <trkpt lat="45.5758" lon="4.67303">
        <ele>322.9921875</ele>
        <time>2018-04-04T14:40:12Z</time>
      </trkpt>
      <trkpt lat="45.57747" lon="4.67425">
        <ele>308.8125</ele>
        <time>2018-04-04T14:40:13Z</time>
      </trkpt>
      <trkpt lat="45.5786" lon="4.67552">
        <ele>292.71484375</ele>
        <time>2018-04-04T14:40:14Z</time>
      </trkpt>
      <trkpt lat="45.57919" lon="4.67562">
        <ele>286.51953125</ele>
        <time>2018-04-04T14:40:15Z</time>
      </trkpt>
      <trkpt lat="45.57925" lon="4.67654">
        <ele>294.83984375</ele>
        <time>2018-04-04T14:40:16Z</time>
      </trkpt>
      <trkpt lat="45.57889" lon="4.67689">
        <ele>289.68359375</ele>
        <time>2018-04-04T14:40:17Z</time>
      </trkpt>
      <trkpt lat="45.57865" lon="4.67841">
        <ele>303.95703125</ele>
        <time>2018-04-04T14:40:19Z</time>
      </trkpt>
      <trkpt lat="45.57896" lon="4.67904">
        <ele>313.69921875</ele>
        <time>2018-04-04T14:40:25Z</time>
      </trkpt>
      <trkpt lat="45.58019" lon="4.68074">
        <ele>313.01953125</ele>
        <time>2018-04-04T14:40:29Z</time>
      </trkpt>
      <trkpt lat="45.58155" lon="4.68218">
        <ele>305.578125</ele>
        <time>2018-04-04T14:40:31Z</time>
      </trkpt>
      <trkpt lat="45.58171" lon="4.68278">
        <ele>299.58984375</ele>
        <time>2018-04-04T14:40:32Z</time>
      </trkpt>
      <trkpt lat="45.58248" lon="4.68293">
        <ele>304.4453125</ele>
        <time>2018-04-04T14:40:33Z</time>
      </trkpt>
      <trkpt lat="45.58268" lon="4.68324">
        <ele>307.015625</ele>
        <time>2018-04-04T14:40:34Z</time>
      </trkpt>
      <trkpt lat="45.58245" lon="4.68353">
        <ele>308.265625</ele>
        <time>2018-04-04T14:40:35Z</time>
      </trkpt>
      <trkpt lat="45.58253" lon="4.68457">
        <ele>316.46875</ele>
        <time>2018-04-04T14:40:36Z</time>
      </trkpt>
      <trkpt lat="45.58289" lon="4.68595">
        <ele>317.3828125</ele>
        <time>2018-04-04T14:40:37Z</time>
      </trkpt>
      <trkpt lat="45.58399" lon="4.68749">
        <ele>316.01953125</ele>
        <time>2018-04-04T14:40:40Z</time>
      </trkpt>
      <trkpt lat="45.58516" lon="4.68919">
        <ele>320.828125</ele>
        <time>2018-04-04T14:40:59Z</time>
      </trkpt>
      <trkpt lat="45.58627" lon="4.69137">
        <ele>325.2734375</ele>
        <time>2018-04-04T14:41:06Z</time>
      </trkpt>
      <trkpt lat="45.58726" lon="4.69304">
        <ele>326.52734375</ele>
        <time>2018-04-04T14:41:08Z</time>
      </trkpt>
      <trkpt lat="45.58874" lon="4.69273">
        <ele>333.9296875</ele>
        <time>2018-04-04T14:41:10Z</time>
      </trkpt>
      <trkpt lat="45.58994" lon="4.69315">
        <ele>337.71875</ele>
        <time>2018-04-04T14:41:11Z</time>
      </trkpt>
      <trkpt lat="45.58988" lon="4.69534">
        <ele>331.8515625</ele>
        <time>2018-04-04T14:41:12Z</time>
      </trkpt>
      <trkpt lat="45.58982" lon="4.69792">
        <ele>323.04296875</ele>
        <time>2018-04-04T14:41:14Z</time>
      </trkpt>
      <trkpt lat="45.59077" lon="4.69914">
        <ele>324.16796875</ele>
        <time>2018-04-04T14:41:22Z</time>
      </trkpt>
      <trkpt lat="45.59116" lon="4.69992">
        <ele>324.18359375</ele>
        <time>2018-04-04T14:41:29Z</time>
      </trkpt>
      <trkpt lat="45.59257" lon="4.70092">
        <ele>325.6953125</ele>
        <time>2018-04-04T14:41:30Z</time>
      </trkpt>
      <trkpt lat="45.59392" lon="4.70212">
        <ele>325.1171875</ele>
        <time>2018-04-04T14:41:31Z</time>
      </trkpt>
      <trkpt lat="45.59518" lon="4.70349">
        <ele>323.609375</ele>
        <time>2018-04-04T14:41:41Z</time>
      </trkpt>
      <trkpt lat="45.59588" lon="4.70486">
        <ele>322.265625</ele>
        <time>2018-04-04T14:41:42Z</time>
      </trkpt>
      <trkpt lat="45.59729" lon="4.70642">
        <ele>318.921875</ele>
        <time>2018-04-04T14:41:43Z</time>
      </trkpt>
      <trkpt lat="45.59797" lon="4.70766">
        <ele>314.62890625</ele>
        <time>2018-04-04T14:41:44Z</time>
      </trkpt>
      <trkpt lat="45.59862" lon="4.70861">
        <ele>312.95703125</ele>
        <time>2018-04-04T14:41:58Z</time>
      </trkpt>
      <trkpt lat="45.59999" lon="4.70775">
        <ele>302.9453125</ele>
        <time>2018-04-04T14:43:12Z</time>
      </trkpt>
      <trkpt lat="45.60135" lon="4.70817">
        <ele>294.1796875</ele>
        <time>2018-04-04T14:43:13Z</time>
      </trkpt>
      <trkpt lat="45.60406" lon="4.70817">
        <ele>286.21484375</ele>
        <time>2018-04-04T14:43:14Z</time>
      </trkpt>
      <trkpt lat="45.60655" lon="4.70909">
        <ele>286.58984375</ele>
        <time>2018-04-04T14:43:15Z</time>
      </trkpt>
      <trkpt lat="45.60646" lon="4.70967">
        <ele>286.92578125</ele>
        <time>2018-04-04T14:43:27Z</time>
      </trkpt>
      <trkpt lat="45.60692" lon="4.70989">
        <ele>289.4140625</ele>
        <time>2018-04-04T14:43:28Z</time>
      </trkpt>
      <trkpt lat="45.60834" lon="4.7117">
        <ele>298.62109375</ele>
        <time>2018-04-04T14:43:30Z</time>
      </trkpt>
      <trkpt lat="45.60931" lon="4.71246">
        <ele>313.21875</ele>
        <time>2018-04-04T14:43:31Z</time>
      </trkpt>
      <trkpt lat="45.61028" lon="4.70982">
        <ele>306.91796875</ele>
        <time>2018-04-04T14:43:32Z</time>
      </trkpt>
      <trkpt lat="45.61146" lon="4.70677">
        <ele>301.99609375</ele>
        <time>2018-04-04T14:43:36Z</time>
      </trkpt>
      <trkpt lat="45.61201" lon="4.70581">
        <ele>297.140625</ele>
        <time>2018-04-04T14:43:44Z</time>
      </trkpt>
      <trkpt lat="45.6122" lon="4.7041">
        <ele>292.984375</ele>
        <time>2018-04-04T14:43:45Z</time>
      </trkpt>
      <trkpt lat="45.61285" lon="4.70303">
        <ele>294.58203125</ele>
        <time>2018-04-04T14:43:49Z</time>
      </trkpt>
      <trkpt lat="45.61351" lon="4.70251">
        <ele>297.5859375</ele>
        <time>2018-04-04T14:43:50Z</time>
      </trkpt>
      <trkpt lat="45.61168" lon="4.69977">
        <ele>297.53125</ele>
        <time>2018-04-04T14:43:51Z</time>
      </trkpt>
      <trkpt lat="45.61339" lon="4.69586">
        <ele>309.01171875</ele>
        <time>2018-04-04T14:43:57Z</time>
      </trkpt>
      <trkpt lat="45.61367" lon="4.69454">
        <ele>316</ele>
        <time>2018-04-04T14:43:59Z</time>
      </trkpt>
      <trkpt lat="45.61148" lon="4.69244">
        <ele>316.7578125</ele>
        <time>2018-04-04T14:44:00Z</time>
      </trkpt>
      <trkpt lat="45.61067" lon="4.6916">
        <ele>317.64453125</ele>
        <time>2018-04-04T14:44:01Z</time>
      </trkpt>
      <trkpt lat="45.61184" lon="4.68948">
        <ele>327.09765625</ele>
        <time>2018-04-04T14:44:03Z</time>
      </trkpt>
      <trkpt lat="45.61253" lon="4.68925">
        <ele>332.80859375</ele>
        <time>2018-04-04T14:44:07Z</time>
      </trkpt>
      <trkpt lat="45.61395" lon="4.68757">
        <ele>342.58203125</ele>
        <time>2018-04-04T14:44:08Z</time>
      </trkpt>
      <trkpt lat="45.61411" lon="4.68766">
        <ele>343.734375</ele>
        <time>2018-04-04T14:44:20Z</time>
      </trkpt>
      <trkpt lat="45.61439" lon="4.68727">
        <ele>347.19921875</ele>
        <time>2018-04-04T14:44:21Z</time>
      </trkpt>
      <trkpt lat="45.61497" lon="4.68628">
        <ele>355.47265625</ele>
        <time>2018-04-04T14:44:24Z</time>
      </trkpt>
      <trkpt lat="45.61491" lon="4.68589">
        <ele>356.66015625</ele>
        <time>2018-04-04T14:44:25Z</time>
      </trkpt>
      <trkpt lat="45.61577" lon="4.68472">
        <ele>370.21484375</ele>
        <time>2018-04-04T14:44:29Z</time>
      </trkpt>
      <trkpt lat="45.61646" lon="4.68311">
        <ele>378.18359375</ele>
        <time>2018-04-04T14:44:33Z</time>
      </trkpt>
      <trkpt lat="45.61708" lon="4.68241">
        <ele>379.7578125</ele>
        <time>2018-04-04T14:44:35Z</time>
      </trkpt>
      <trkpt lat="45.61731" lon="4.6824">
        <ele>378.55859375</ele>
        <time>2018-04-04T14:44:37Z</time>
      </trkpt>
      <trkpt lat="45.61743" lon="4.68051">
        <ele>372.6796875</ele>
        <time>2018-04-04T14:44:43Z</time>
      </trkpt>
      <trkpt lat="45.61771" lon="4.67941">
        <ele>369.25</ele>
        <time>2018-04-04T14:44:44Z</time>
      </trkpt>
      <trkpt lat="45.61789" lon="4.67897">
        <ele>368.03515625</ele>
        <time>2018-04-04T14:44:50Z</time>
      </trkpt>
      <trkpt lat="45.61791" lon="4.67824">
        <ele>366.7109375</ele>
        <time>2018-04-04T14:44:51Z</time>
      </trkpt>
      <trkpt lat="45.61814" lon="4.67771">
        <ele>365.31640625</ele>
        <time>2018-04-04T14:44:52Z</time>
      </trkpt>
      <trkpt lat="45.61844" lon="4.67627">
        <ele>363.546875</ele>
        <time>2018-04-04T14:44:57Z</time>
      </trkpt>
      <trkpt lat="45.61856" lon="4.6762">
        <ele>363.59765625</ele>
        <time>2018-04-04T14:44:59Z</time>
      </trkpt>
      <trkpt lat="45.61891" lon="4.67635">
        <ele>364.03125</ele>
        <time>2018-04-04T14:45:00Z</time>
      </trkpt>
      <trkpt lat="45.61917" lon="4.67612">
        <ele>364.4609375</ele>
        <time>2018-04-04T14:45:02Z</time>
      </trkpt>
      <trkpt lat="45.61949" lon="4.67443">
        <ele>367.109375</ele>
        <time>2018-04-04T14:45:08Z</time>
      </trkpt>
      <trkpt lat="45.62014" lon="4.67318">
        <ele>367.1796875</ele>
        <time>2018-04-04T14:45:09Z</time>
      </trkpt>
      <trkpt lat="45.62031" lon="4.6729">
        <ele>367.3203125</ele>
        <time>2018-04-04T14:45:10Z</time>
      </trkpt>
      <trkpt lat="45.62084" lon="4.67364">
        <ele>369.40625</ele>
        <time>2018-04-04T14:45:12Z</time>
      </trkpt>
    </trkseg>
  </trk>
</gpx>